Washington, District of Columbia
Traffic Map
Current Weather Conditions
Washington, District of Columbia
Clear
Clear
15°
Feels Like: 15°
Wind Chill: 15° Ceiling: Unl
Heat Index: 15° Visibility: 10mi
Dew Point: 11° Wind: 5mph
Humidity: 75% Direction: 210° (SSW)
Pressure: 30.18in Gusts: 0mph
Raw Report DataKDCA 200452Z 21004KT 10SM CLR 15/11 A3018 RMK AO2 SLP217 T01500106 402220094
Traffic Incident Summary
Active as of:
Severity:
Category:
InformationThere was an issue retrieving the traffic information for this location. Please try a different location or try again shortly.
Advertisements